createdAt,value
2023-05-05T00:01:10.290Z,13.45
2023-05-05T00:03:46.639Z,13.41
2023-05-05T00:06:20.074Z,13.11
2023-05-05T00:09:00.952Z,13.21
2023-05-05T00:11:31.865Z,13.12
2023-05-05T00:14:01.550Z,13.16
2023-05-05T00:16:32.382Z,13.26
2023-05-05T00:19:01.198Z,13.20
2023-05-05T00:21:46.753Z,13.12
2023-05-05T00:24:15.411Z,12.88
2023-05-05T00:26:49.886Z,12.99
2023-05-05T00:29:20.047Z,13.06
2023-05-05T00:31:57.286Z,12.97
2023-05-05T00:34:27.898Z,13.10
2023-05-05T00:37:06.012Z,13.22
2023-05-05T00:39:36.485Z,13.10
2023-05-05T00:42:04.779Z,13.37
2023-05-05T00:44:38.563Z,13.16
2023-05-05T00:47:10.469Z,13.16
2023-05-05T00:49:40.861Z,13.20
2023-05-05T00:52:12.673Z,13.32
2023-05-05T00:54:41.305Z,13.50
2023-05-05T00:57:11.197Z,13.24
2023-05-05T00:59:43.134Z,13.24
2023-05-05T01:02:20.728Z,13.25
2023-05-05T01:04:49.228Z,13.14
2023-05-05T01:07:35.221Z,12.90
2023-05-05T01:10:19.662Z,12.97
2023-05-05T01:13:00.346Z,13.02
2023-05-05T01:15:35.621Z,13.19
2023-05-05T01:18:11.394Z,13.27
2023-05-05T01:20:46.897Z,13.11
2023-05-05T01:23:22.695Z,13.08
2023-05-05T01:26:06.123Z,13.12
2023-05-05T01:28:58.986Z,12.97
2023-05-05T01:31:51.940Z,12.85
2023-05-05T01:34:27.823Z,12.93
2023-05-05T01:37:10.029Z,12.92
2023-05-05T01:39:42.216Z,13.05
2023-05-05T01:42:20.794Z,12.76
2023-05-05T01:44:50.620Z,13.14
2023-05-05T01:47:24.128Z,13.13
2023-05-05T01:49:56.107Z,12.82
2023-05-05T01:52:28.273Z,12.76
2023-05-05T01:55:03.599Z,12.90
2023-05-05T01:57:32.560Z,13.05
2023-05-05T02:00:08.478Z,12.93
2023-05-05T02:02:46.869Z,12.85
2023-05-05T02:05:26.608Z,12.58
2023-05-05T02:08:00.242Z,12.63
2023-05-05T02:10:30.450Z,12.73
2023-05-05T02:13:09.916Z,12.55
2023-05-05T02:15:53.017Z,12.89
2023-05-05T02:18:27.273Z,12.76
2023-05-05T02:20:55.953Z,12.74
2023-05-05T02:23:26.491Z,12.68
2023-05-05T02:26:07.840Z,12.66
2023-05-05T02:28:42.588Z,12.75
2023-05-05T02:31:13.575Z,12.76
2023-05-05T02:33:47.689Z,12.74
2023-05-05T02:36:21.705Z,12.48
2023-05-05T02:39:03.406Z,12.62
2023-05-05T02:41:40.401Z,12.55
2023-05-05T02:44:19.916Z,12.54
2023-05-05T02:46:49.286Z,12.59
2023-05-05T02:49:24.910Z,12.66
2023-05-05T02:52:19.627Z,12.66
2023-05-05T02:55:03.131Z,12.53
2023-05-05T02:57:45.103Z,12.65
2023-05-05T03:00:18.626Z,12.46
2023-05-05T03:02:56.776Z,12.57
2023-05-05T03:05:30.004Z,12.46
2023-05-05T03:08:04.792Z,12.37
2023-05-05T03:10:43.194Z,12.45
2023-05-05T03:13:16.021Z,12.29
2023-05-05T03:15:49.446Z,12.32
2023-05-05T03:18:22.433Z,12.13
2023-05-05T03:21:07.991Z,12.06
2023-05-05T03:23:48.144Z,12.10
2023-05-05T03:26:24.699Z,12.20
2023-05-05T03:29:02.577Z,12.23
2023-05-05T03:31:40.239Z,12.12
2023-05-05T03:34:11.027Z,11.94
2023-05-05T03:36:49.460Z,11.97
2023-05-05T03:39:20.665Z,12.08
2023-05-05T03:41:54.875Z,11.85
2023-05-05T03:44:25.622Z,11.98
2023-05-05T03:46:55.690Z,11.76
2023-05-05T03:49:30.569Z,11.80
2023-05-05T03:52:03.457Z,11.69
2023-05-05T03:54:32.418Z,11.95
2023-05-05T03:57:02.928Z,11.88
2023-05-05T03:59:32.457Z,12.06
2023-05-05T04:02:02.056Z,11.90
2023-05-05T04:04:30.586Z,11.91
2023-05-05T04:07:01.673Z,12.04
2023-05-05T04:09:30.359Z,12.05
2023-05-05T04:12:06.951Z,11.98
2023-05-05T04:14:38.328Z,12.05
2023-05-05T04:17:09.158Z,12.13
2023-05-05T04:19:37.659Z,12.04
2023-05-05T04:22:12.458Z,12.30
2023-05-05T04:24:43.583Z,12.20
2023-05-05T04:27:15.442Z,12.45
2023-05-05T04:29:45.670Z,12.36
2023-05-05T04:32:19.701Z,12.31
2023-05-05T04:34:49.371Z,12.44
2023-05-05T04:37:22.217Z,12.60
2023-05-05T04:39:52.021Z,12.50
2023-05-05T04:42:21.760Z,12.41
2023-05-05T04:44:55.342Z,12.62
2023-05-05T04:47:25.491Z,12.54
2023-05-05T04:49:56.062Z,12.66
2023-05-05T04:52:28.378Z,12.64
2023-05-05T04:54:57.655Z,12.57
2023-05-05T04:57:27.891Z,12.74
2023-05-05T04:59:58.611Z,12.73
2023-05-05T05:02:30.154Z,12.96
2023-05-05T05:05:01.421Z,12.67
2023-05-05T05:07:48.974Z,12.56
2023-05-05T05:10:23.607Z,12.71
2023-05-05T05:12:57.915Z,12.71
2023-05-05T05:15:28.147Z,12.96
2023-05-05T05:17:59.480Z,13.05
2023-05-05T05:20:31.564Z,12.93
2023-05-05T05:23:02.195Z,12.89
2023-05-05T05:25:35.621Z,13.07
2023-05-05T05:28:10.532Z,13.02
2023-05-05T05:30:49.604Z,13.06
2023-05-05T05:33:21.309Z,13.26
2023-05-05T05:35:53.625Z,13.25
2023-05-05T05:38:26.887Z,13.19
2023-05-05T05:41:08.287Z,13.33
2023-05-05T05:43:50.047Z,13.33
2023-05-05T05:46:21.611Z,13.27
2023-05-05T05:48:51.923Z,13.44
2023-05-05T05:51:22.538Z,13.32
2023-05-05T05:54:00.853Z,13.62
2023-05-05T05:56:32.839Z,13.55
2023-05-05T05:59:01.902Z,13.51
2023-05-05T06:01:32.719Z,13.43
2023-05-05T06:04:09.364Z,13.54
2023-05-05T06:06:41.564Z,13.70
2023-05-05T06:09:19.889Z,13.70
2023-05-05T06:11:50.828Z,13.69
2023-05-05T06:14:28.475Z,13.67
2023-05-05T06:16:58.796Z,13.67
2023-05-05T06:19:31.447Z,13.92
2023-05-05T06:22:00.940Z,14.08
2023-05-05T06:24:32.621Z,14.13
2023-05-05T06:27:06.682Z,14.23
2023-05-05T06:29:38.244Z,14.35
2023-05-05T06:32:09.549Z,14.35
2023-05-05T06:34:40.050Z,14.42
2023-05-05T06:37:11.620Z,14.44
2023-05-05T06:39:48.658Z,14.37
2023-05-05T06:42:18.240Z,14.51
2023-05-05T06:44:58.131Z,14.59
2023-05-05T06:47:27.400Z,14.71
2023-05-05T06:49:57.769Z,15.01
2023-05-05T06:52:28.897Z,14.69
2023-05-05T06:54:59.242Z,14.75
2023-05-05T06:57:31.057Z,15.09
2023-05-05T07:00:03.499Z,15.10
2023-05-05T07:02:34.107Z,14.96
2023-05-05T07:05:06.078Z,14.89
2023-05-05T07:07:44.660Z,15.25
2023-05-05T07:10:20.065Z,15.23
2023-05-05T07:12:49.938Z,15.16
2023-05-05T07:15:27.430Z,15.28
2023-05-05T07:17:57.092Z,15.25
2023-05-05T07:20:26.157Z,15.70
2023-05-05T07:22:56.594Z,15.47
2023-05-05T07:25:30.861Z,15.56
2023-05-05T07:28:00.668Z,15.71
2023-05-05T07:30:29.982Z,16.05
2023-05-05T07:33:06.970Z,15.99
2023-05-05T07:35:36.401Z,15.91
2023-05-05T07:38:10.989Z,16.11
2023-05-05T07:40:49.003Z,16.08
2023-05-05T07:43:27.706Z,16.21
2023-05-05T07:46:01.166Z,16.06
2023-05-05T07:48:30.200Z,16.12
2023-05-05T07:50:58.986Z,16.18
2023-05-05T07:53:28.081Z,16.41
2023-05-05T07:56:03.507Z,16.40
2023-05-05T07:58:36.720Z,16.27
2023-05-05T08:01:07.076Z,16.46
2023-05-05T08:03:39.556Z,16.54
2023-05-05T08:06:13.564Z,16.65
2023-05-05T08:08:50.999Z,16.47
2023-05-05T08:11:28.995Z,16.74
2023-05-05T08:14:01.761Z,16.92
2023-05-05T08:16:33.349Z,16.90
2023-05-05T08:19:21.204Z,17.10
2023-05-05T08:22:01.464Z,17.04
2023-05-05T08:24:30.887Z,17.02
2023-05-05T08:27:14.261Z,17.02
2023-05-05T08:29:42.692Z,17.06
2023-05-05T08:32:13.818Z,16.98
2023-05-05T08:34:41.768Z,17.17
2023-05-05T08:37:11.990Z,17.08
2023-05-05T08:39:40.491Z,17.24
2023-05-05T08:42:29.279Z,17.48
2023-05-05T08:45:06.900Z,17.44
2023-05-05T08:47:36.009Z,17.51
2023-05-05T08:50:07.363Z,17.65
2023-05-05T08:52:40.821Z,17.73
2023-05-05T08:55:18.935Z,17.85
2023-05-05T08:58:04.660Z,17.88
2023-05-05T09:00:40.771Z,18.07
2023-05-05T09:03:09.077Z,18.11
2023-05-05T09:05:48.129Z,18.31
2023-05-05T09:08:27.493Z,18.30
2023-05-05T09:10:58.997Z,18.32
2023-05-05T09:13:40.459Z,18.32
2023-05-05T09:16:10.446Z,18.39
2023-05-05T09:18:42.229Z,18.48
2023-05-05T09:21:28.417Z,18.47
2023-05-05T09:24:11.646Z,18.77
2023-05-05T09:26:46.641Z,18.91
2023-05-05T09:29:21.062Z,19.14
2023-05-05T09:32:05.852Z,19.31
2023-05-05T09:34:43.900Z,18.93
2023-05-05T09:37:12.954Z,18.88
2023-05-05T09:39:58.628Z,18.98
2023-05-05T09:42:29.142Z,19.08
2023-05-05T09:45:03.321Z,19.18
2023-05-05T09:47:40.353Z,19.44
2023-05-05T09:50:11.465Z,19.66
2023-05-05T09:52:48.544Z,19.65
2023-05-05T09:55:28.761Z,19.81
2023-05-05T09:57:57.358Z,19.97
2023-05-05T10:00:51.921Z,20.11
2023-05-05T10:03:23.495Z,20.01
2023-05-05T10:06:02.257Z,19.87
2023-05-05T10:08:35.896Z,20.19
2023-05-05T10:11:07.656Z,20.39
2023-05-05T10:13:38.173Z,20.18
2023-05-05T10:16:10.292Z,20.39
2023-05-05T10:18:51.272Z,20.57
2023-05-05T10:21:23.872Z,20.73
2023-05-05T10:24:01.486Z,20.93
2023-05-05T10:26:38.191Z,21.05
2023-05-05T10:29:08.877Z,20.73
2023-05-05T10:31:52.167Z,20.97
2023-05-05T10:34:31.625Z,21.07
2023-05-05T10:37:09.108Z,21.08
2023-05-05T10:39:39.592Z,21.29
2023-05-05T10:42:10.180Z,21.35
2023-05-05T10:44:43.775Z,21.47
2023-05-05T10:47:13.695Z,21.62
2023-05-05T10:49:52.431Z,21.87
2023-05-05T10:52:30.616Z,21.77
2023-05-05T10:55:05.977Z,21.73
2023-05-05T10:57:46.249Z,21.97
2023-05-05T11:00:49.925Z,22.13
2023-05-05T11:03:24.826Z,22.18
2023-05-05T11:06:15.751Z,22.30
2023-05-05T11:08:51.722Z,22.58
2023-05-05T11:11:59.068Z,22.63
2023-05-05T11:14:30.313Z,22.68
2023-05-05T11:16:59.583Z,22.76
2023-05-05T11:19:49.094Z,22.89
2023-05-05T11:22:28.315Z,22.86
2023-05-05T11:24:58.573Z,22.37
2023-05-05T11:28:08.224Z,22.49
2023-05-05T11:30:37.396Z,22.92
2023-05-05T11:33:25.845Z,23.07
2023-05-05T11:36:06.077Z,23.16
2023-05-05T11:39:01.616Z,22.97
2023-05-05T11:42:28.643Z,23.18
2023-05-05T11:45:00.052Z,23.45
2023-05-05T11:47:33.219Z,23.61
2023-05-05T11:50:20.880Z,23.81
2023-05-05T11:52:54.111Z,23.88
2023-05-05T11:55:33.758Z,23.93
2023-05-05T11:58:02.919Z,24.15
2023-05-05T12:00:35.069Z,24.44
2023-05-05T12:03:06.998Z,24.25
2023-05-05T12:05:37.176Z,24.25
2023-05-05T12:08:28.158Z,24.26
2023-05-05T12:11:08.984Z,24.57
2023-05-05T12:13:44.371Z,24.67
2023-05-05T12:16:29.206Z,24.73
2023-05-05T12:19:07.425Z,25.16
2023-05-05T12:21:36.651Z,24.93
2023-05-05T12:24:10.916Z,25.13
2023-05-05T12:26:50.229Z,25.28
2023-05-05T12:29:26.974Z,25.25
2023-05-05T12:32:00.209Z,25.46
2023-05-05T12:34:31.328Z,25.59
2023-05-05T12:37:01.502Z,25.60
2023-05-05T12:39:37.388Z,25.52
2023-05-05T12:42:14.396Z,25.61
2023-05-05T12:44:46.879Z,25.83
2023-05-05T12:47:17.711Z,25.87
2023-05-05T12:49:54.827Z,26.10
2023-05-05T12:52:24.534Z,26.21
2023-05-05T12:54:59.412Z,26.33
2023-05-05T12:57:28.454Z,26.47
2023-05-05T13:00:06.497Z,26.67
2023-05-05T13:02:38.524Z,26.71
2023-05-05T13:05:10.424Z,26.78
2023-05-05T13:07:54.789Z,26.70
2023-05-05T13:10:31.088Z,27.03
2023-05-05T13:13:04.624Z,27.08
2023-05-05T13:15:36.121Z,27.34
2023-05-05T13:18:04.309Z,27.28
2023-05-05T13:20:33.316Z,27.49
2023-05-05T13:23:11.270Z,27.24
2023-05-05T13:25:43.868Z,27.20
2023-05-05T13:28:12.138Z,27.39
2023-05-05T13:30:41.904Z,27.07
2023-05-05T13:33:12.322Z,27.44
2023-05-05T13:35:42.338Z,27.77
2023-05-05T13:38:20.052Z,27.72
2023-05-05T13:40:54.269Z,27.39
2023-05-05T13:43:23.661Z,27.77
2023-05-05T13:46:02.810Z,27.94
2023-05-05T13:48:40.514Z,28.03
2023-05-05T13:51:16.587Z,28.37
2023-05-05T13:53:51.276Z,28.69
2023-05-05T13:56:28.716Z,28.75
2023-05-05T13:58:59.559Z,28.66
2023-05-05T14:01:27.681Z,28.56
2023-05-05T14:03:59.448Z,28.99
2023-05-05T14:06:35.463Z,29.12
2023-05-05T14:09:08.012Z,29.15
2023-05-05T14:11:42.707Z,29.21
2023-05-05T14:14:11.612Z,29.36
2023-05-05T14:16:50.365Z,29.42
2023-05-05T14:19:21.530Z,29.28
2023-05-05T14:21:51.463Z,29.41
2023-05-05T14:24:23.272Z,29.42
2023-05-05T14:26:58.916Z,29.46
2023-05-05T14:29:36.468Z,29.72
2023-05-05T14:32:08.616Z,29.57
2023-05-05T14:34:37.692Z,29.46
2023-05-05T14:37:08.475Z,29.34
2023-05-05T14:39:38.890Z,29.15
2023-05-05T14:42:19.788Z,29.17
2023-05-05T14:44:58.362Z,29.14
2023-05-05T14:47:29.579Z,28.77
2023-05-05T14:49:57.902Z,28.55
2023-05-05T14:52:27.315Z,28.70
2023-05-05T14:54:58.648Z,28.51
2023-05-05T14:57:30.837Z,28.14
2023-05-05T14:59:59.281Z,28.72
2023-05-05T15:02:29.647Z,28.87
2023-05-05T15:05:02.763Z,29.19
2023-05-05T15:07:39.062Z,29.18
2023-05-05T15:10:10.945Z,29.30
2023-05-05T15:12:50.366Z,29.41
2023-05-05T15:15:21.820Z,29.40
2023-05-05T15:17:50.241Z,29.37
2023-05-05T15:20:22.115Z,29.40
2023-05-05T15:23:07.250Z,29.29
2023-05-05T15:25:37.487Z,28.70
2023-05-05T15:28:11.931Z,29.49
2023-05-05T15:30:43.959Z,29.42
2023-05-05T15:33:14.683Z,29.90
2023-05-05T15:35:57.024Z,29.98
2023-05-05T15:38:29.047Z,30.15
2023-05-05T15:40:59.739Z,30.02
2023-05-05T15:43:29.644Z,29.72
2023-05-05T15:46:01.460Z,30.00
2023-05-05T15:48:33.156Z,30.27
2023-05-05T15:51:09.958Z,30.41
2023-05-05T15:53:49.846Z,30.61
2023-05-05T15:56:28.334Z,30.82
2023-05-05T15:59:04.242Z,31.00
2023-05-05T16:01:36.302Z,31.11
2023-05-05T16:04:06.962Z,30.94
2023-05-05T16:06:37.633Z,30.86
2023-05-05T16:09:16.068Z,31.05
2023-05-05T16:11:44.337Z,30.55
2023-05-05T16:14:19.699Z,29.93
2023-05-05T16:16:50.697Z,29.61
2023-05-05T16:19:20.857Z,29.00
2023-05-05T16:21:52.327Z,28.24
2023-05-05T16:24:22.990Z,27.96
2023-05-05T16:26:55.793Z,28.05
2023-05-05T16:29:27.155Z,28.27
2023-05-05T16:31:56.730Z,28.29
2023-05-05T16:34:26.553Z,28.14
2023-05-05T16:36:55.327Z,27.92
2023-05-05T16:39:27.864Z,27.63
2023-05-05T16:41:57.772Z,27.78
2023-05-05T16:44:29.223Z,28.24
2023-05-05T16:46:59.387Z,28.61
2023-05-05T16:49:28.753Z,28.60
2023-05-05T16:51:58.361Z,28.11
2023-05-05T16:54:26.382Z,27.53
2023-05-05T16:57:00.823Z,27.17
2023-05-05T16:59:37.047Z,26.89
2023-05-05T17:02:14.284Z,26.59
2023-05-05T17:04:52.468Z,26.21
2023-05-05T17:07:23.853Z,25.91
2023-05-05T17:09:52.126Z,25.76
2023-05-05T17:12:26.257Z,25.42
2023-05-05T17:15:19.202Z,25.12
2023-05-05T17:17:49.665Z,24.77
2023-05-05T17:20:28.613Z,24.62
2023-05-05T17:23:00.154Z,24.51
2023-05-05T17:25:30.090Z,24.28
2023-05-05T17:27:58.506Z,24.06
2023-05-05T17:30:31.865Z,23.93
2023-05-05T17:33:01.299Z,23.83
2023-05-05T17:35:32.149Z,23.89
2023-05-05T17:38:00.761Z,23.74
2023-05-05T17:40:32.496Z,23.77
2023-05-05T17:43:01.593Z,23.53
2023-05-05T17:45:38.740Z,23.49
2023-05-05T17:48:10.357Z,23.32
2023-05-05T17:50:41.283Z,23.15
2023-05-05T17:53:12.013Z,23.08
2023-05-05T17:55:40.209Z,22.94
2023-05-05T17:58:08.704Z,22.80
2023-05-05T18:00:43.617Z,22.63
2023-05-05T18:03:20.861Z,22.68
2023-05-05T18:05:50.610Z,22.54
2023-05-05T18:08:21.298Z,22.39
2023-05-05T18:10:51.005Z,22.35
2023-05-05T18:13:21.051Z,22.23
2023-05-05T18:16:00.231Z,22.16
2023-05-05T18:18:28.729Z,22.06
2023-05-05T18:20:57.354Z,22.01
2023-05-05T18:23:27.232Z,21.92
2023-05-05T18:26:00.600Z,21.87
2023-05-05T18:28:31.401Z,21.81
2023-05-05T18:31:06.565Z,21.82
2023-05-05T18:33:35.791Z,21.75
2023-05-05T18:36:09.648Z,21.61
2023-05-05T18:38:43.167Z,21.57
2023-05-05T18:41:22.147Z,21.57
2023-05-05T18:43:51.599Z,21.45
2023-05-05T18:46:33.659Z,21.37
2023-05-05T18:49:07.265Z,21.45
2023-05-05T18:51:37.247Z,21.26
2023-05-05T18:54:06.203Z,21.21
2023-05-05T18:56:40.187Z,21.13
2023-05-05T18:59:08.878Z,21.16
2023-05-05T19:01:39.615Z,21.01
2023-05-05T19:04:26.734Z,21.04
2023-05-05T19:06:59.637Z,20.88
2023-05-05T19:09:29.649Z,20.88
2023-05-05T19:12:01.542Z,20.85
2023-05-05T19:14:33.258Z,20.91
2023-05-05T19:17:03.615Z,20.64
2023-05-05T19:19:38.892Z,20.71
2023-05-05T19:22:09.612Z,20.66
2023-05-05T19:24:38.313Z,20.62
2023-05-05T19:27:16.446Z,20.53
2023-05-05T19:29:51.971Z,20.46
2023-05-05T19:32:24.479Z,20.49
2023-05-05T19:34:54.926Z,20.49
2023-05-05T19:37:26.387Z,20.34
2023-05-05T19:39:57.582Z,20.25
2023-05-05T19:42:28.116Z,20.21
2023-05-05T19:44:57.173Z,20.22
2023-05-05T19:47:28.612Z,20.22
2023-05-05T19:49:59.781Z,20.09
2023-05-05T19:52:39.317Z,20.14
2023-05-05T19:55:16.764Z,19.94
2023-05-05T19:57:54.607Z,20.05
2023-05-05T20:00:25.903Z,19.96
2023-05-05T20:03:01.738Z,20.02
2023-05-05T20:05:39.280Z,20.02
2023-05-05T20:08:09.256Z,19.98
2023-05-05T20:10:46.741Z,19.93
2023-05-05T20:13:27.571Z,19.93
2023-05-05T20:16:01.284Z,20.00
2023-05-05T20:18:44.399Z,19.93
2023-05-05T20:21:13.264Z,19.85
2023-05-05T20:23:47.816Z,19.71
2023-05-05T20:26:19.552Z,19.64
2023-05-05T20:28:54.612Z,19.53
2023-05-05T20:31:24.567Z,19.49
2023-05-05T20:34:01.309Z,19.57
2023-05-05T20:36:32.175Z,19.53
2023-05-05T20:39:03.220Z,19.63
2023-05-05T20:41:33.881Z,19.66
2023-05-05T20:44:02.780Z,19.62
2023-05-05T20:46:34.423Z,19.63
2023-05-05T20:49:04.236Z,19.53
2023-05-05T20:51:36.577Z,19.60
2023-05-05T20:54:07.682Z,19.55
2023-05-05T20:56:42.358Z,19.31
2023-05-05T20:59:28.293Z,19.45
2023-05-05T21:01:58.498Z,19.54
2023-05-05T21:04:35.329Z,19.28
2023-05-05T21:07:06.059Z,19.25
2023-05-05T21:09:36.420Z,19.20
2023-05-05T21:12:06.506Z,19.27
2023-05-05T21:14:37.820Z,19.09
2023-05-05T21:17:05.848Z,19.14
2023-05-05T21:19:35.828Z,19.13
2023-05-05T21:22:04.425Z,19.02
2023-05-05T21:24:33.186Z,18.83
2023-05-05T21:27:01.168Z,18.77
2023-05-05T21:29:34.307Z,18.96
2023-05-05T21:32:07.106Z,18.87
2023-05-05T21:34:47.737Z,18.90
2023-05-05T21:37:19.369Z,18.91
2023-05-05T21:39:50.675Z,18.82
2023-05-05T21:42:28.046Z,18.80
2023-05-05T21:44:59.653Z,18.81
2023-05-05T21:47:29.140Z,18.65
2023-05-05T21:50:02.488Z,18.64
2023-05-05T21:52:33.349Z,18.48
2023-05-05T21:55:04.439Z,18.58
2023-05-05T21:57:38.439Z,18.48
2023-05-05T22:00:09.508Z,18.52
2023-05-05T22:02:51.388Z,18.38
2023-05-05T22:05:21.956Z,18.46
2023-05-05T22:07:51.574Z,18.65
2023-05-05T22:10:19.832Z,18.32
2023-05-05T22:12:52.551Z,18.36
2023-05-05T22:15:25.369Z,18.46
2023-05-05T22:17:57.040Z,18.51
2023-05-05T22:20:36.090Z,18.63
2023-05-05T22:23:05.220Z,18.48
2023-05-05T22:25:42.828Z,18.42
2023-05-05T22:28:10.848Z,18.40
2023-05-05T22:30:48.624Z,18.43
2023-05-05T22:33:18.819Z,18.30
2023-05-05T22:36:00.001Z,18.38
2023-05-05T22:38:31.523Z,18.39
2023-05-05T22:41:01.352Z,18.29
2023-05-05T22:43:31.455Z,18.37
2023-05-05T22:46:02.506Z,18.35
2023-05-05T22:48:39.768Z,18.20
2023-05-05T22:51:19.170Z,18.10
2023-05-05T22:53:55.777Z,17.96
2023-05-05T22:56:23.933Z,18.05
2023-05-05T22:58:54.953Z,18.19
2023-05-05T23:01:24.327Z,17.88
2023-05-05T23:03:54.639Z,18.26
2023-05-05T23:06:25.682Z,18.17
2023-05-05T23:09:01.622Z,18.00
2023-05-05T23:11:31.524Z,18.13
2023-05-05T23:14:03.312Z,18.20
2023-05-05T23:16:32.351Z,18.02
2023-05-05T23:19:07.280Z,18.05
2023-05-05T23:21:52.125Z,18.19
2023-05-05T23:24:23.644Z,18.05
2023-05-05T23:26:52.980Z,18.02
2023-05-05T23:29:24.859Z,18.03
2023-05-05T23:31:56.048Z,17.84
2023-05-05T23:34:27.923Z,17.79
2023-05-05T23:37:03.446Z,17.69
2023-05-05T23:39:38.160Z,17.65
2023-05-05T23:42:08.257Z,17.46
2023-05-05T23:44:39.010Z,17.70
2023-05-05T23:47:16.891Z,17.57
2023-05-05T23:49:44.908Z,17.63
2023-05-05T23:52:16.117Z,17.32
2023-05-05T23:54:47.990Z,17.62
2023-05-05T23:57:28.202Z,17.72
2023-05-05T23:59:59.948Z,17.48
